Time;durP1;ratioP1;P1;durP2;ratioP2;P2;SDS_P1;SDS_P2;PMS_P1;PMS_P2;Temp;Humidity;BMP_temperature;BMP_pressure;BME280_temperature;BME280_humidity;BME280_pressure;Samples;Min_cycle;Max_cycle;Signal;HPM_P1;HPM_P2
2022/03/21 00:00:39;;;;;;;19.37;16.70;;;;;;;5.27;47.91;103351.56;4950659;28;20871;-43
2022/03/21 00:03:08;;;;;;;19.27;17.23;;;;;;;5.24;48.37;103338.50;4950648;29;20990;-42
2022/03/21 00:05:36;;;;;;;20.70;16.67;;;;;;;5.20;48.51;103339.66;4950846;28;20432;-43
2022/03/21 00:08:05;;;;;;;18.83;16.60;;;;;;;5.17;48.05;103345.16;4950091;28;20514;-42
2022/03/21 00:10:34;;;;;;;18.40;16.43;;;;;;;5.12;48.24;103345.44;4950198;29;20435;-42
2022/03/21 00:13:03;;;;;;;18.53;16.53;;;;;;;5.08;48.28;103345.75;4950557;28;20463;-42
2022/03/21 00:15:32;;;;;;;19.23;17.20;;;;;;;5.05;48.64;103338.84;4950670;28;20475;-44
2022/03/21 00:18:02;;;;;;;19.20;17.10;;;;;;;5.01;48.65;103337.34;4950187;28;20463;-43
2022/03/21 00:20:30;;;;;;;20.90;17.90;;;;;;;4.99;48.63;103336.59;4950382;28;20444;-43
2022/03/21 00:22:58;;;;;;;19.70;17.13;;;;;;;4.96;48.57;103342.91;4950203;29;20494;-45
2022/03/21 00:25:26;;;;;;;19.13;16.93;;;;;;;4.95;48.29;103335.97;4950301;28;20440;-42
2022/03/21 00:27:56;;;;;;;18.53;16.13;;;;;;;4.94;48.83;103338.69;4949859;28;20472;-42
2022/03/21 00:30:23;;;;;;;25.60;18.30;;;;;;;4.92;49.41;103340.59;4950047;28;20442;-42
2022/03/21 00:32:51;;;;;;;19.83;17.50;;;;;;;4.91;48.82;103344.16;4950125;28;20463;-42
2022/03/21 00:35:20;;;;;;;18.80;16.73;;;;;;;4.87;49.25;103351.44;4950378;28;20436;-43
2022/03/21 00:37:48;;;;;;;18.93;16.93;;;;;;;4.86;48.96;103339.19;4949835;28;20809;-42
2022/03/21 00:40:18;;;;;;;22.80;17.27;;;;;;;4.85;49.36;103348.03;4950171;28;20535;-42
2022/03/21 00:42:47;;;;;;;22.10;17.17;;;;;;;4.83;49.37;103346.44;4950183;28;20485;-42
2022/03/21 00:45:23;;;;;;;19.37;17.37;;;;;;;4.82;49.12;103348.25;4949981;28;20436;-42
2022/03/21 00:47:51;;;;;;;22.20;16.97;;;;;;;4.82;49.21;103350.88;4983186;28;20562;-42
2022/03/21 00:50:22;;;;;;;19.70;16.90;;;;;;;4.81;49.17;103353.59;4949746;28;20432;-42
2022/03/21 00:52:51;;;;;;;21.30;16.77;;;;;;;4.78;49.02;103354.66;4951911;28;20470;-43
2022/03/21 00:55:21;;;;;;;19.27;17.13;;;;;;;4.77;49.47;103341.53;4953302;28;20438;-42
2022/03/21 00:57:49;;;;;;;21.03;17.60;;;;;;;4.75;49.43;103349.56;4952895;28;20456;-42
2022/03/21 01:00:20;;;;;;;19.43;17.30;;;;;;;4.72;49.67;103348.91;4952862;29;21034;-43
2022/03/21 01:02:48;;;;;;;19.57;17.57;;;;;;;4.63;49.64;103342.38;4952778;28;20489;-42
2022/03/21 01:05:16;;;;;;;16.87;15.27;;;;;;;4.61;49.59;103346.91;4953081;29;21053;-42
2022/03/21 01:07:44;;;;;;;19.33;16.87;;;;;;;4.59;50.24;103345.31;4952787;28;20514;-42
2022/03/21 01:10:17;;;;;;;19.13;17.00;;;;;;;4.56;50.03;103348.16;4953089;28;20810;-43
2022/03/21 01:12:44;;;;;;;22.50;18.63;;;;;;;4.55;50.24;103335.88;4953124;28;20904;-43
2022/03/21 01:15:14;;;;;;;19.37;17.23;;;;;;;4.55;49.11;103335.88;4952898;28;20807;-43
2022/03/21 01:17:45;;;;;;;19.50;17.40;;;;;;;4.53;50.04;103341.28;4952734;28;20547;-42
2022/03/21 01:20:13;;;;;;;24.23;17.63;;;;;;;4.54;49.81;103342.94;4952733;29;20507;-45
2022/03/21 01:22:41;;;;;;;16.67;14.90;;;;;;;4.55;49.50;103339.38;4952809;29;20463;-43
2022/03/21 01:25:10;;;;;;;18.27;16.37;;;;;;;4.54;49.74;103339.47;4952819;28;20432;-43
2022/03/21 01:27:39;;;;;;;17.10;15.43;;;;;;;4.51;50.00;103339.66;4952317;28;20486;-42
2022/03/21 01:30:09;;;;;;;18.50;16.57;;;;;;;4.48;50.09;103346.81;4952678;28;20445;-46
2022/03/21 01:32:38;;;;;;;17.03;15.23;;;;;;;4.42;50.45;103341.91;4952186;28;20894;-42
2022/03/21 01:35:08;;;;;;;22.07;18.47;;;;;;;4.37;50.96;103341.34;4952628;28;20438;-45
2022/03/21 01:37:36;;;;;;;19.93;15.27;;;;;;;4.34;50.45;103338.91;4952437;28;20516;-42
2022/03/21 01:40:05;;;;;;;15.83;14.20;;;;;;;4.31;50.76;103328.50;4952594;29;20440;-42
2022/03/21 01:42:32;;;;;;;17.23;15.53;;;;;;;4.26;50.72;103335.03;4952237;28;20550;-42
2022/03/21 01:45:00;;;;;;;19.10;17.30;;;;;;;4.24;51.12;103335.09;4952542;28;20442;-45
2022/03/21 01:47:28;;;;;;;18.90;16.60;;;;;;;4.22;50.64;103331.72;4985713;28;20476;-47
2022/03/21 01:49:55;;;;;;;17.43;15.63;;;;;;;4.19;51.20;103336.31;4952428;28;20436;-45
2022/03/21 01:52:24;;;;;;;17.83;15.47;;;;;;;4.18;51.06;103338.09;4952145;28;20463;-42
2022/03/21 01:57:38;;;;;;;19.03;17.23;;;;;;;4.14;50.77;103341.03;4952200;28;20547;-44
2022/03/21 02:00:07;;;;;;;18.80;16.00;;;;;;;4.09;51.08;103338.66;4952352;28;20432;-45
2022/03/21 02:02:34;;;;;;;20.20;18.03;;;;;;;4.02;51.63;103332.06;4951783;28;20559;-44
2022/03/21 02:05:02;;;;;;;17.93;15.77;;;;;;;3.98;51.58;103332.31;4952173;28;20432;-42
2022/03/21 02:07:31;;;;;;;16.83;15.03;;;;;;;4.00;50.37;103325.19;4952989;28;20537;-41
2022/03/21 02:09:59;;;;;;;19.30;16.37;;;;;;;4.03;51.12;103327.63;4953069;28;20442;-42
2022/03/21 02:12:28;;;;;;;20.43;15.47;;;;;;;4.05;51.15;103328.38;4951974;28;20819;-44
2022/03/21 02:14:56;;;;;;;19.40;17.00;;;;;;;4.09;50.93;103322.00;4952068;28;20446;-42
2022/03/21 02:17:26;;;;;;;19.33;15.37;;;;;;;4.09;50.87;103306.97;4951717;28;20901;-42
2022/03/21 02:19:55;;;;;;;17.10;15.10;;;;;;;4.09;50.89;103314.88;4952199;28;20431;-42
2022/03/21 02:22:28;;;;;;;19.77;16.30;;;;;;;4.10;50.99;103321.88;4951866;28;20466;-42
2022/03/21 02:25:24;;;;;;;17.70;15.90;;;;;;;4.08;50.30;103323.78;4952059;28;20431;-42
2022/03/21 02:27:54;;;;;;;19.00;14.60;;;;;;;4.09;51.42;103332.56;4951570;28;20570;-42
2022/03/21 02:30:22;;;;;;;20.07;16.00;;;;;;;4.05;51.15;103331.88;4951488;28;20473;-42
2022/03/21 02:32:49;;;;;;;19.03;15.47;;;;;;;4.02;51.09;103332.06;4951755;29;20491;-44
2022/03/21 02:35:17;;;;;;;20.67;16.50;;;;;;;4.00;51.29;103328.66;4951892;28;20533;-42
2022/03/21 02:37:47;;;;;;;18.23;16.13;;;;;;;3.99;51.39;103323.47;4951453;28;20468;-43
2022/03/21 02:40:16;;;;;;;18.23;16.33;;;;;;;3.97;51.37;103318.28;4951432;28;20446;-42
2022/03/21 02:42:45;;;;;;;21.50;15.47;;;;;;;3.96;51.41;103321.00;4951551;28;20555;-42
2022/03/21 02:45:12;;;;;;;17.50;15.60;;;;;;;3.96;51.32;103331.56;4951761;28;20436;-43
2022/03/21 02:47:40;;;;;;;19.87;16.87;;;;;;;3.95;51.78;103325.44;4984577;28;20846;-42
2022/03/21 02:50:12;;;;;;;18.70;15.50;;;;;;;3.91;51.79;103321.28;4951603;29;20827;-43
2022/03/21 02:52:42;;;;;;;17.80;15.70;;;;;;;3.94;51.93;103333.47;4951560;29;20544;-43
2022/03/21 02:55:10;;;;;;;19.33;15.10;;;;;;;3.89;51.56;103326.66;4951396;28;20424;-42
2022/03/21 02:57:38;;;;;;;16.47;14.40;;;;;;;3.87;51.82;103333.81;4951247;28;20560;-44
2022/03/21 03:00:08;;;;;;;18.23;16.40;;;;;;;3.85;51.74;103325.13;4951354;28;20446;-43
2022/03/21 03:02:36;;;;;;;17.20;15.60;;;;;;;3.85;51.31;103317.19;4951260;28;20868;-42
2022/03/21 03:05:04;;;;;;;17.67;15.77;;;;;;;3.82;51.81;103313.91;4951444;28;20436;-42
2022/03/21 03:07:31;;;;;;;20.60;16.23;;;;;;;3.81;52.07;103320.13;4950892;28;20467;-43
2022/03/21 03:09:59;;;;;;;20.73;15.30;;;;;;;3.76;52.11;103320.38;4951167;28;20525;-42
2022/03/21 03:12:26;;;;;;;19.40;16.23;;;;;;;3.76;52.19;103322.19;4951104;29;20470;-44
2022/03/21 03:14:54;;;;;;;17.63;14.50;;;;;;;3.72;52.40;103318.88;4950417;28;20432;-44
2022/03/21 03:17:23;;;;;;;18.60;16.17;;;;;;;3.70;52.76;103315.47;4950880;28;20471;-42
2022/03/21 03:19:51;;;;;;;17.30;15.80;;;;;;;3.66;53.54;103313.09;4951179;28;20432;-43
2022/03/21 03:22:19;;;;;;;18.83;16.13;;;;;;;3.66;53.38;103318.38;4950807;28;20456;-45
2022/03/21 03:24:48;;;;;;;18.53;16.20;;;;;;;3.62;53.73;103327.41;4951162;29;20435;-44
2022/03/21 03:27:16;;;;;;;22.20;16.53;;;;;;;3.59;53.71;103322.31;4950775;28;20839;-43
2022/03/21 03:29:43;;;;;;;17.83;16.00;;;;;;;3.57;53.57;103332.97;4951068;28;20490;-43
2022/03/21 03:32:11;;;;;;;17.77;15.37;;;;;;;3.56;53.60;103327.75;4950786;28;20858;-42
2022/03/21 03:34:40;;;;;;;20.40;17.57;;;;;;;3.55;53.21;103326.06;4950872;29;20444;-44
2022/03/21 03:37:08;;;;;;;19.20;16.80;;;;;;;3.55;53.07;103326.94;4950724;28;20467;-42
2022/03/21 03:39:36;;;;;;;20.93;16.97;;;;;;;3.51;53.77;103324.53;4950954;28;20443;-42
2022/03/21 03:42:04;;;;;;;18.53;15.77;;;;;;;3.46;54.15;103327.47;4950746;28;20823;-43
2022/03/21 03:44:32;;;;;;;18.00;15.07;;;;;;;3.41;54.00;103331.28;4950864;29;20524;-42
2022/03/21 03:47:00;;;;;;;22.27;16.40;;;;;;;3.35;53.64;103328.06;4983771;28;21017;-44
2022/03/21 03:49:27;;;;;;;17.13;15.43;;;;;;;3.34;53.77;103328.97;4950731;28;20479;-42
2022/03/21 03:51:56;;;;;;;19.80;16.40;;;;;;;3.26;54.54;103325.94;4950667;28;20451;-42
2022/03/21 03:54:24;;;;;;;17.73;16.00;;;;;;;3.23;54.15;103323.47;4950573;28;20446;-43
2022/03/21 03:56:52;;;;;;;18.40;15.93;;;;;;;3.19;54.33;103327.25;4950527;28;20478;-42
2022/03/21 03:59:19;;;;;;;18.33;16.60;;;;;;;3.21;54.32;103332.41;4950737;28;20436;-43
2022/03/21 04:01:47;;;;;;;17.30;15.50;;;;;;;3.14;54.63;103326.63;4950156;29;20471;-43
2022/03/21 04:04:15;;;;;;;19.43;16.07;;;;;;;3.13;54.26;103322.31;4950989;28;20444;-43
2022/03/21 04:06:43;;;;;;;18.27;14.93;;;;;;;3.13;54.44;103319.66;4950488;28;20489;-43
2022/03/21 04:09:12;;;;;;;18.90;16.90;;;;;;;3.14;54.25;103326.63;4950566;29;20570;-43
2022/03/21 04:11:39;;;;;;;18.67;16.30;;;;;;;3.17;53.78;103321.19;4950307;28;20827;-42
2022/03/21 04:14:07;;;;;;;16.90;15.20;;;;;;;3.20;53.92;103321.00;4950504;29;20447;-43
2022/03/21 04:16:44;;;;;;;18.47;16.47;;;;;;;3.21;53.97;103322.72;4950195;28;20475;-43
2022/03/21 04:19:13;;;;;;;18.07;16.13;;;;;;;3.21;54.02;103335.03;4943972;28;20501;-44
2022/03/21 04:21:41;;;;;;;19.00;15.73;;;;;;;3.19;54.11;103332.50;4937912;28;20488;-45
2022/03/21 04:24:08;;;;;;;16.53;14.60;;;;;;;3.17;53.78;103334.34;5027057;28;20785;-43
2022/03/21 04:26:38;;;;;;;16.83;15.03;;;;;;;3.15;54.06;103324.84;5032665;28;20633;-43
2022/03/21 04:29:05;;;;;;;18.00;14.63;;;;;;;3.14;53.98;103331.03;5034952;28;20522;-42
2022/03/21 04:31:34;;;;;;;17.83;16.00;;;;;;;3.14;54.07;103334.53;5034828;28;20459;-43
2022/03/21 04:34:02;;;;;;;18.33;15.80;;;;;;;3.11;54.25;103325.94;5034760;28;20467;-46
2022/03/21 04:36:31;;;;;;;16.43;14.70;;;;;;;3.10;54.05;103335.66;5034459;28;20473;-42
2022/03/21 04:38:58;;;;;;;16.97;15.20;;;;;;;3.06;54.67;103331.47;5034604;28;21030;-42
2022/03/21 04:41:26;;;;;;;17.07;15.13;;;;;;;3.03;54.76;103336.06;5034448;28;20459;-44
2022/03/21 04:43:55;;;;;;;16.07;14.57;;;;;;;3.05;54.44;103340.31;5034802;28;20446;-42
2022/03/21 04:46:22;;;;;;;18.97;16.60;;;;;;;3.03;54.48;103336.06;5034414;28;20831;-43
2022/03/21 04:48:50;;;;;;;18.00;16.13;;;;;;;3.03;54.63;103331.66;5034713;28;20877;-45
2022/03/21 04:51:17;;;;;;;17.53;15.70;;;;;;;3.08;54.66;103326.09;5034398;28;20460;-45
2022/03/21 04:53:45;;;;;;;20.97;15.70;;;;;;;3.09;54.65;103315.50;5035125;28;20432;-41
2022/03/21 04:56:13;;;;;;;21.50;15.80;;;;;;;3.11;54.79;103324.16;5034917;28;20474;-42
2022/03/21 04:58:40;;;;;;;18.83;14.63;;;;;;;3.12;54.24;103302.13;5034776;28;20522;-42
2022/03/21 05:01:09;;;;;;;20.43;16.37;;;;;;;3.14;54.50;103299.41;5034120;28;20478;-43
2022/03/21 05:03:37;;;;;;;20.17;15.73;;;;;;;3.16;54.49;103306.31;5034377;28;20636;-43
2022/03/21 05:06:06;;;;;;;18.97;14.70;;;;;;;3.20;54.35;103325.41;5033885;28;20460;-43
2022/03/21 05:08:34;;;;;;;18.73;16.73;;;;;;;3.21;53.98;103341.16;5034074;28;20781;-42
2022/03/21 05:11:01;;;;;;;15.77;14.20;;;;;;;3.20;54.43;103333.34;5034100;28;20831;-43
2022/03/21 05:13:29;;;;;;;23.37;16.70;;;;;;;3.19;54.06;103323.75;5034300;28;20456;-43
2022/03/21 05:15:57;;;;;;;22.27;16.30;;;;;;;3.20;54.00;103336.81;5033756;28;20443;-42
2022/03/21 05:18:27;;;;;;;18.40;16.40;;;;;;;3.23;54.55;103346.34;5034074;28;20527;-44
2022/03/21 05:20:55;;;;;;;17.60;14.77;;;;;;;3.25;54.46;103347.13;5033699;28;20522;-42
2022/03/21 05:31:38;;;;;;;18.30;15.77;;;;;;;3.50;53.77;103347.44;5033506;28;20854;-43
2022/03/21 05:36:53;;;;;;;22.63;16.40;;;;;;;3.62;53.87;103352.00;5019769;28;20548;-42
2022/03/21 05:39:21;;;;;;;20.00;15.40;;;;;;;3.69;52.79;103360.44;5033167;28;20432;-42
2022/03/21 05:41:50;;;;;;;17.27;15.67;;;;;;;3.75;53.54;103354.78;5033305;28;20550;-43
2022/03/21 05:44:18;;;;;;;17.60;14.90;;;;;;;3.79;53.15;103357.16;5033873;28;20543;-42
2022/03/21 05:46:45;;;;;;;17.00;15.30;;;;;;;3.85;53.30;103359.44;5033208;28;20550;-43
2022/03/21 05:49:13;;;;;;;17.13;15.27;;;;;;;3.91;53.00;103360.91;5033566;28;20471;-43
2022/03/21 05:51:41;;;;;;;16.47;14.80;;;;;;;3.97;53.08;103375.53;5033148;28;20456;-44
2022/03/21 05:54:10;;;;;;;21.00;16.30;;;;;;;4.03;52.86;103367.25;5033424;28;20436;-43
2022/03/21 05:56:39;;;;;;;16.83;14.90;;;;;;;4.07;52.43;103366.94;5032857;28;20470;-42
2022/03/21 06:01:54;;;;;;;23.90;16.77;;;;;;;4.18;51.56;103366.34;5032994;28;20503;-42
2022/03/21 06:04:23;;;;;;;22.73;15.20;;;;;;;4.25;52.41;103372.94;5033341;28;20661;-42
2022/03/21 06:06:51;;;;;;;18.47;16.53;;;;;;;4.30;51.13;103384.91;5033041;28;20472;-42
2022/03/21 06:09:19;;;;;;;17.90;14.43;;;;;;;4.42;51.61;103388.66;5033337;28;20903;-43
2022/03/21 06:11:48;;;;;;;17.50;15.80;;;;;;;4.47;51.28;103374.22;5032990;28;20580;-42
2022/03/21 06:14:18;;;;;;;17.67;15.47;;;;;;;4.68;51.45;103382.63;5033076;28;20466;-42
2022/03/21 06:16:46;;;;;;;19.20;15.70;;;;;;;4.77;50.75;103387.34;5032478;28;20978;-42
2022/03/21 06:19:13;;;;;;;18.27;14.63;;;;;;;4.81;50.71;103385.31;5032937;28;20800;-43
2022/03/21 06:21:42;;;;;;;15.77;14.20;;;;;;;4.85;51.08;103387.69;5032878;28;20559;-41
2022/03/21 06:24:12;;;;;;;17.57;15.80;;;;;;;4.89;50.39;103386.56;5033072;28;20469;-42
2022/03/21 06:26:40;;;;;;;18.83;16.20;;;;;;;4.93;50.28;103384.56;5032524;28;20492;-42
2022/03/21 06:29:08;;;;;;;18.77;15.83;;;;;;;4.97;50.51;103391.38;5032881;28;20535;-42
2022/03/21 06:31:36;;;;;;;17.03;15.20;;;;;;;5.08;50.42;103390.72;5032424;28;20535;-43
2022/03/21 06:34:04;;;;;;;18.03;15.30;;;;;;;5.15;49.74;103392.88;5032784;28;20436;-41
2022/03/21 06:36:31;;;;;;;16.33;14.73;;;;;;;5.26;49.56;103390.38;5032292;28;20457;-45
2022/03/21 06:39:00;;;;;;;18.63;15.53;;;;;;;5.65;48.64;103394.91;5032917;28;20427;-42
2022/03/21 06:41:28;;;;;;;18.27;15.07;;;;;;;5.99;47.88;103390.91;5032605;28;20589;-43
2022/03/21 06:43:56;;;;;;;19.23;15.70;;;;;;;6.36;46.55;103390.09;5032470;28;20432;-43
2022/03/21 06:46:23;;;;;;;17.20;15.37;;;;;;;6.74;46.58;103392.78;4952184;28;20463;-42
2022/03/21 06:48:51;;;;;;;17.03;15.23;;;;;;;7.06;45.57;103391.34;4951450;28;20458;-42
2022/03/21 06:51:24;;;;;;;16.10;14.60;;;;;;;7.50;45.37;103390.78;4950887;29;21069;-41
2022/03/21 06:53:52;;;;;;;16.97;15.17;;;;;;;7.72;43.14;103395.38;4951620;28;20440;-42
2022/03/21 06:56:21;;;;;;;18.90;16.07;;;;;;;8.07;43.67;103384.75;4951241;28;20974;-41
2022/03/21 06:58:49;;;;;;;17.40;15.77;;;;;;;8.18;42.53;103390.94;4951360;28;20435;-41
2022/03/21 07:01:16;;;;;;;18.97;17.07;;;;;;;8.20;41.38;103389.03;4951035;28;20475;-42
2022/03/21 07:03:45;;;;;;;15.93;14.47;;;;;;;8.33;43.41;103387.16;4951465;28;20850;-44
2022/03/21 07:06:13;;;;;;;17.40;15.67;;;;;;;8.28;41.94;103383.16;4951317;28;20462;-43
2022/03/21 07:08:40;;;;;;;17.90;16.30;;;;;;;8.20;42.52;103386.38;4951380;28;20446;-43
2022/03/21 07:11:12;;;;;;;26.90;17.90;;;;;;;8.12;41.82;103369.31;4950985;28;20484;-41
2022/03/21 07:13:41;;;;;;;17.43;15.73;;;;;;;8.15;41.73;103367.25;4951277;28;20793;-41
2022/03/21 07:16:10;;;;;;;18.93;16.43;;;;;;;8.02;40.81;103374.47;4951115;28;20456;-45
2022/03/21 07:18:37;;;;;;;21.23;16.60;;;;;;;7.93;41.90;103382.28;4951333;29;20466;-41
2022/03/21 07:21:05;;;;;;;18.83;16.93;;;;;;;8.05;42.42;103389.34;4951176;29;20436;-43
2022/03/21 07:23:33;;;;;;;19.33;17.40;;;;;;;8.10;42.20;103393.34;4951152;28;20535;-43
2022/03/21 07:26:02;;;;;;;19.20;14.93;;;;;;;8.13;42.24;103390.44;4950740;28;20438;-42
2022/03/21 07:28:29;;;;;;;18.63;16.87;;;;;;;8.17;42.69;103397.25;4951230;28;20802;-43
2022/03/21 07:31:19;;;;;;;18.67;16.87;;;;;;;8.17;41.90;103383.97;4950788;28;20843;-42
2022/03/21 07:33:46;;;;;;;18.10;16.00;;;;;;;8.15;42.26;103393.84;4951311;28;20436;-43
2022/03/21 07:36:14;;;;;;;17.93;15.87;;;;;;;8.28;41.61;103391.97;4950662;28;20459;-46
2022/03/21 07:38:42;;;;;;;16.43;14.80;;;;;;;8.43;42.80;103397.94;4950812;28;20450;-41
2022/03/21 07:41:09;;;;;;;17.93;16.13;;;;;;;8.67;40.88;103401.34;4950771;28;20460;-42
2022/03/21 07:43:38;;;;;;;19.40;16.10;;;;;;;8.68;41.40;103397.72;4951062;29;20442;-41
2022/03/21 07:48:53;;;;;;;18.20;16.30;;;;;;;9.09;40.98;103404.25;4964551;28;20432;-41
2022/03/21 07:51:21;;;;;;;17.77;15.97;;;;;;;9.38;40.95;103408.94;4950715;28;20486;-43
2022/03/21 07:53:49;;;;;;;16.57;15.07;;;;;;;9.62;41.32;103414.06;4950717;28;21034;-41
2022/03/21 07:56:23;;;;;;;17.87;16.03;;;;;;;9.80;40.65;103409.91;4950409;28;20464;-42
2022/03/21 07:58:50;;;;;;;17.93;16.03;;;;;;;9.89;39.59;103419.81;4951188;28;20440;-41
2022/03/21 08:01:19;;;;;;;17.07;15.47;;;;;;;9.90;38.70;103410.84;4951597;28;20473;-44
2022/03/21 08:03:47;;;;;;;17.00;15.40;;;;;;;9.79;39.00;103423.38;4954451;28;20435;-40
2022/03/21 08:06:16;;;;;;;20.63;16.17;;;;;;;9.77;39.67;103420.81;4953710;28;20459;-43
2022/03/21 08:08:44;;;;;;;17.63;15.90;;;;;;;9.83;39.10;103422.97;4954087;28;20975;-42
2022/03/21 08:11:11;;;;;;;17.37;15.63;;;;;;;9.76;39.27;103415.63;4953638;29;20487;-42
2022/03/21 08:13:39;;;;;;;16.80;14.83;;;;;;;9.69;38.84;103409.94;4953923;28;20442;-46
2022/03/21 08:16:06;;;;;;;18.07;15.50;;;;;;;9.55;38.48;103401.41;4953427;28;20463;-44
2022/03/21 08:18:37;;;;;;;16.57;14.97;;;;;;;9.48;39.25;103406.38;4953713;28;21026;-46
2022/03/21 08:21:04;;;;;;;16.00;14.40;;;;;;;9.34;38.61;103404.00;4953775;28;20850;-46
2022/03/21 08:23:34;;;;;;;18.50;15.47;;;;;;;9.25;38.68;103399.41;4953737;29;20959;-42
2022/03/21 08:26:02;;;;;;;18.10;16.00;;;;;;;9.18;38.89;103408.84;4953469;28;20439;-42
2022/03/21 08:28:29;;;;;;;17.43;15.83;;;;;;;9.19;39.32;103406.06;4953609;29;20439;-43
2022/03/21 08:30:57;;;;;;;17.17;15.57;;;;;;;9.43;39.78;103405.91;4953265;29;20476;-42
2022/03/21 08:33:25;;;;;;;18.43;16.63;;;;;;;9.37;39.19;103404.59;4953942;28;20547;-43
2022/03/21 08:35:52;;;;;;;18.77;16.80;;;;;;;9.39;39.91;103399.97;4953479;28;20442;-42
2022/03/21 08:38:25;;;;;;;24.23;16.13;;;;;;;9.55;39.86;103407.56;4953612;29;20431;-42
2022/03/21 08:40:56;;;;;;;17.00;15.30;;;;;;;9.51;39.48;103408.78;4953271;28;20435;-43
2022/03/21 08:43:23;;;;;;;18.27;16.43;;;;;;;9.67;39.33;103413.72;4953795;28;20440;-41
2022/03/21 08:45:51;;;;;;;17.30;15.57;;;;;;;9.72;39.27;103414.19;4953149;28;20439;-44
2022/03/21 08:49:23;;;;;;;18.10;16.30;;;;;;;9.63;39.57;103412.25;4953465;28;20439;-42
2022/03/21 08:51:07;;;;;;;18.20;16.13;;;;;;;9.71;39.13;103412.47;4952907;28;20965;-41
2022/03/21 08:53:34;;;;;;;16.83;15.23;;;;;;;9.69;37.96;103398.44;4953331;28;20436;-41
2022/03/21 08:56:04;;;;;;;17.37;15.70;;;;;;;9.92;39.43;103408.88;4953162;28;20436;-41
2022/03/21 08:58:33;;;;;;;19.43;17.57;;;;;;;10.15;39.11;103415.00;4953381;29;20436;-43
2022/03/21 09:01:00;;;;;;;17.87;16.20;;;;;;;9.93;38.13;103397.25;4952870;28;20434;-41
2022/03/21 09:03:28;;;;;;;19.33;17.30;;;;;;;9.90;39.24;103407.31;4953276;29;20439;-42
2022/03/21 09:05:56;;;;;;;18.23;16.50;;;;;;;10.17;38.96;103401.53;4952872;28;20439;-43
2022/03/21 09:08:23;;;;;;;18.03;16.43;;;;;;;10.32;38.59;103395.75;4953136;28;20530;-41
2022/03/21 09:10:52;;;;;;;18.37;15.97;;;;;;;10.49;38.51;103402.31;4952953;29;20530;-42
2022/03/21 09:13:21;;;;;;;18.23;16.53;;;;;;;10.72;38.82;103401.16;4952375;29;20442;-41
2022/03/21 09:15:48;;;;;;;19.67;17.57;;;;;;;10.88;37.85;103398.00;4952788;28;20803;-41
2022/03/21 09:18:16;;;;;;;17.80;16.00;;;;;;;10.95;38.01;103389.34;4953247;28;20436;-42
2022/03/21 09:20:44;;;;;;;19.37;17.60;;;;;;;10.94;37.37;103384.13;4952671;28;20446;-43
2022/03/21 09:23:11;;;;;;;19.43;16.80;;;;;;;11.08;37.59;103386.41;4952840;28;20460;-41
2022/03/21 09:25:39;;;;;;;18.43;16.53;;;;;;;11.10;38.17;103381.81;4952825;29;20939;-42
2022/03/21 09:28:08;;;;;;;18.13;16.43;;;;;;;11.25;38.55;103376.91;4952443;28;20476;-41
2022/03/21 09:30:39;;;;;;;19.07;17.10;;;;;;;11.28;37.33;103372.16;4952889;29;20432;-41
2022/03/21 09:33:07;;;;;;;18.73;16.70;;;;;;;11.18;37.66;103360.59;4952568;28;20896;-42
2022/03/21 09:35:35;;;;;;;17.63;15.90;;;;;;;11.24;37.03;103367.22;4952655;28;20447;-42
2022/03/21 09:38:03;;;;;;;19.80;16.80;;;;;;;11.28;37.73;103374.81;4952390;28;20582;-44
2022/03/21 09:40:31;;;;;;;18.20;16.60;;;;;;;11.37;36.60;103370.47;4952506;28;20691;-44
2022/03/21 09:42:58;;;;;;;19.63;17.60;;;;;;;11.51;37.00;103370.91;4952648;28;20460;-41
2022/03/21 09:45:29;;;;;;;18.30;16.50;;;;;;;11.52;36.32;103367.28;4952577;28;20543;-41
2022/03/21 09:48:11;;;;;;;17.30;15.57;;;;;;;11.65;37.10;103372.31;4988645;28;20551;-41
2022/03/21 09:50:42;;;;;;;19.30;17.37;;;;;;;11.78;35.52;103372.94;5033793;28;20825;-41
2022/03/21 09:53:11;;;;;;;18.93;17.03;;;;;;;11.86;35.60;103375.75;5033355;28;20539;-43
2022/03/21 09:55:40;;;;;;;19.07;17.40;;;;;;;11.70;36.81;103372.81;5033560;28;20478;-44
2022/03/21 09:58:09;;;;;;;19.00;17.00;;;;;;;11.78;36.12;103362.25;5032789;28;20923;-41
2022/03/21 10:00:37;;;;;;;18.47;16.67;;;;;;;11.86;35.82;103369.53;5033316;28;20436;-43
2022/03/21 10:03:07;;;;;;;18.73;16.67;;;;;;;12.01;35.43;103365.44;5033104;28;20563;-42
2022/03/21 10:05:37;;;;;;;17.90;16.30;;;;;;;12.06;35.08;103368.56;5033208;28;20439;-43
2022/03/21 10:08:17;;;;;;;17.67;15.97;;;;;;;12.28;35.36;103367.38;5032677;28;20483;-41
2022/03/21 10:10:58;;;;;;;18.53;16.70;;;;;;;12.33;35.21;103371.34;5032950;28;20519;-44
2022/03/21 10:13:28;;;;;;;17.93;16.20;;;;;;;12.40;35.81;103368.91;5033114;28;20545;-45
2022/03/21 10:16:10;;;;;;;16.77;15.03;;;;;;;12.52;34.28;103373.09;5032668;28;20429;-42
2022/03/21 10:18:56;;;;;;;18.13;16.43;;;;;;;12.51;33.68;103371.44;5033382;28;20495;-45
2022/03/21 10:21:25;;;;;;;18.53;16.73;;;;;;;12.46;34.99;103362.97;5032947;28;20466;-45
2022/03/21 10:23:59;;;;;;;16.60;15.10;;;;;;;12.55;34.51;103362.09;5032841;28;20535;-41
2022/03/21 10:26:30;;;;;;;18.67;16.80;;;;;;;12.59;34.89;103371.53;5033006;28;20466;-41
2022/03/21 10:28:59;;;;;;;18.37;16.47;;;;;;;12.72;34.55;103361.34;5032999;28;20464;-42
2022/03/21 10:31:39;;;;;;;19.37;17.43;;;;;;;12.88;34.48;103364.22;5032466;28;20462;-43
2022/03/21 10:34:10;;;;;;;17.00;15.37;;;;;;;12.96;34.42;103374.22;5032892;28;20853;-41
2022/03/21 10:36:58;;;;;;;15.40;14.10;;;;;;;13.12;33.57;103363.72;5032362;28;20474;-42
2022/03/21 10:39:26;;;;;;;18.10;16.30;;;;;;;13.02;33.77;103363.72;5032669;28;20799;-43
2022/03/21 10:41:59;;;;;;;18.00;16.27;;;;;;;13.07;34.53;103365.97;5032278;28;20533;-44
2022/03/21 10:44:27;;;;;;;18.77;17.00;;;;;;;13.10;33.02;103360.34;5014964;28;20429;-42
2022/03/21 10:46:58;;;;;;;16.27;14.77;;;;;;;13.29;34.33;103366.41;4940556;28;20550;-41
2022/03/21 10:49:31;;;;;;;19.10;17.30;;;;;;;13.34;34.05;103366.00;4951733;28;20463;-43
2022/03/21 10:51:59;;;;;;;17.90;16.00;;;;;;;13.48;35.00;103370.81;4951281;28;20502;-42
2022/03/21 10:54:48;;;;;;;19.33;17.07;;;;;;;13.50;32.73;103370.69;4951383;29;20428;-42
2022/03/21 10:57:32;;;;;;;17.50;15.80;;;;;;;13.67;34.28;103364.47;4951211;28;20464;-42
2022/03/21 11:00:16;;;;;;;18.30;16.60;;;;;;;13.62;32.35;103361.41;4951380;28;20439;-41
2022/03/21 11:02:53;;;;;;;16.80;15.33;;;;;;;13.67;32.96;103354.59;4951399;28;20547;-42
2022/03/21 11:05:23;;;;;;;18.30;16.50;;;;;;;13.56;33.40;103356.66;4951586;28;20784;-44
2022/03/21 11:07:53;;;;;;;18.90;16.90;;;;;;;13.31;32.49;103355.56;4951153;28;20478;-42
2022/03/21 11:10:23;;;;;;;17.43;15.73;;;;;;;13.55;34.70;103361.19;4951475;28;20527;-42
2022/03/21 11:12:50;;;;;;;18.40;16.60;;;;;;;13.69;33.62;103363.31;4951102;28;20479;-42
2022/03/21 11:15:18;;;;;;;19.33;17.40;;;;;;;13.80;34.25;103357.72;4951118;28;20451;-41
2022/03/21 11:17:47;;;;;;;17.87;16.27;;;;;;;13.97;34.36;103355.19;4950936;28;20464;-41
2022/03/21 11:20:15;;;;;;;20.40;18.50;;;;;;;13.95;33.15;103354.50;4950969;28;20436;-42
2022/03/21 11:22:44;;;;;;;18.43;16.70;;;;;;;13.90;33.26;103351.44;4951175;29;20559;-43
2022/03/21 11:25:13;;;;;;;18.83;17.10;;;;;;;13.98;33.96;103352.31;4951344;28;20435;-42
2022/03/21 11:27:56;;;;;;;20.50;18.37;;;;;;;14.13;32.66;103360.66;4950708;28;20534;-42
2022/03/21 11:30:33;;;;;;;19.50;17.80;;;;;;;14.21;33.07;103356.22;4951115;28;20436;-41
2022/03/21 11:33:13;;;;;;;19.80;17.80;;;;;;;14.14;33.22;103355.16;4950966;28;20852;-42
2022/03/21 11:35:49;;;;;;;20.50;18.33;;;;;;;13.94;32.77;103352.81;4950418;28;20527;-42
2022/03/21 11:38:27;;;;;;;19.10;17.10;;;;;;;13.82;31.96;103346.84;4950726;28;20446;-43
2022/03/21 11:41:10;;;;;;;20.10;18.13;;;;;;;13.81;33.12;103353.19;4950872;28;20846;-42
2022/03/21 11:43:39;;;;;;;20.77;18.70;;;;;;;13.88;33.58;103351.59;4950862;29;20439;-42